createdAt,value
2024-03-21T00:07:07.104Z,98990.93
2024-03-21T00:17:13.742Z,98983.63
2024-03-21T00:27:20.142Z,98992.98
2024-03-21T00:37:27.673Z,98988.23
2024-03-21T00:47:34.752Z,98990.63
2024-03-21T00:57:41.608Z,98986.81
2024-03-21T01:07:48.641Z,98985.88
2024-03-21T01:17:58.042Z,98975.52
2024-03-21T01:28:04.656Z,98972.40
2024-03-21T01:38:12.145Z,98964.14
2024-03-21T01:48:19.563Z,98960.52
2024-03-21T01:58:26.416Z,98962.16
2024-03-21T02:08:33.015Z,98952.36
2024-03-21T02:18:39.779Z,98951.40
2024-03-21T02:28:47.909Z,98949.30
2024-03-21T02:38:54.844Z,98953.45
2024-03-21T02:49:01.251Z,98956.31
2024-03-21T02:59:07.799Z,98963.89
2024-03-21T03:09:14.489Z,98953.06
2024-03-21T03:19:21.242Z,98948.60
2024-03-21T03:29:27.740Z,98947.46
2024-03-21T03:39:34.551Z,98952.36
2024-03-21T03:49:41.109Z,98954.75
2024-03-21T03:59:47.562Z,98956.73
2024-03-21T04:09:54.176Z,98957.27
2024-03-21T04:20:00.858Z,98964.44
2024-03-21T04:30:09.333Z,98949.29
2024-03-21T04:40:15.979Z,98948.08
2024-03-21T04:50:23.829Z,98945.17
2024-03-21T05:00:28.998Z,98954.46
2024-03-21T05:10:35.440Z,98953.92
2024-03-21T05:20:40.907Z,98956.33
2024-03-21T05:30:48.300Z,98966.86
2024-03-21T05:40:54.791Z,98953.89
2024-03-21T05:51:01.078Z,98972.99
2024-03-21T06:01:23.098Z,98980.81
2024-03-21T06:11:29.664Z,98974.89
2024-03-21T06:21:37.874Z,98962.81
2024-03-21T06:31:45.573Z,98955.77
2024-03-21T06:41:50.726Z,98958.28
2024-03-21T06:51:57.299Z,98962.08
2024-03-21T07:02:02.734Z,98965.71
2024-03-21T07:12:06.189Z,98966.27
2024-03-21T07:22:12.847Z,98963.11
2024-03-21T07:32:18.026Z,98960.61
2024-03-21T07:42:24.695Z,98962.42
2024-03-21T07:52:31.090Z,98960.85
2024-03-21T08:02:37.702Z,98960.55
2024-03-21T08:12:43.782Z,98954.55
2024-03-21T08:22:48.868Z,98963.76
2024-03-21T08:32:55.469Z,98962.14
2024-03-21T08:43:01.697Z,98960.07
2024-03-21T08:53:08.391Z,98957.91
2024-03-21T09:03:15.360Z,98947.56
2024-03-21T09:13:22.872Z,98954.64
2024-03-21T09:23:27.410Z,98951.34
2024-03-21T09:33:34.965Z,98945.70
2024-03-21T09:43:40.400Z,98937.92
2024-03-21T09:53:45.678Z,98935.27
2024-03-21T10:03:50.204Z,98926.99
2024-03-21T10:13:55.525Z,98913.70
2024-03-21T10:24:06.022Z,98902.39
2024-03-21T10:34:13.497Z,98888.83
2024-03-21T10:44:19.419Z,98881.40
2024-03-21T10:54:25.844Z,98878.91
2024-03-21T11:04:38.288Z,98869.70
2024-03-21T11:14:46.522Z,98852.54
2024-03-21T11:24:53.278Z,98850.98
2024-03-21T11:34:58.737Z,98846.93
2024-03-21T11:45:04.925Z,98837.33
2024-03-21T11:55:11.179Z,98828.58
2024-03-21T12:05:17.804Z,98818.23
2024-03-21T12:15:24.980Z,98812.89
2024-03-21T12:25:31.669Z,98811.19
2024-03-21T12:35:37.223Z,98795.37
2024-03-21T12:45:46.136Z,98789.30
2024-03-21T12:55:51.713Z,98784.15
2024-03-21T13:05:57.987Z,98776.16
2024-03-21T13:16:03.625Z,98766.45
2024-03-21T13:26:09.666Z,98756.13
2024-03-21T13:36:16.646Z,98748.12
2024-03-21T13:46:23.861Z,98731.86
2024-03-21T13:56:30.038Z,98723.98
2024-03-21T14:06:37.170Z,98716.12
2024-03-21T14:16:44.643Z,98706.70
2024-03-21T14:26:51.406Z,98713.12
2024-03-21T14:36:58.316Z,98721.56
2024-03-21T14:47:05.882Z,98723.63
2024-03-21T14:57:12.343Z,98718.59
2024-03-21T15:07:19.258Z,98711.22
2024-03-21T15:17:26.102Z,98705.77
2024-03-21T15:27:32.717Z,98700.20
2024-03-21T15:37:39.431Z,98703.11
2024-03-21T15:47:46.386Z,98696.33
2024-03-21T15:57:53.210Z,98694.60
2024-03-21T16:07:59.960Z,98690.40
2024-03-21T16:18:06.768Z,98685.70
2024-03-21T16:28:13.553Z,98688.69
2024-03-21T16:38:22.795Z,98695.42
2024-03-21T16:48:29.233Z,98694.95
2024-03-21T16:58:36.566Z,98693.05
2024-03-21T17:08:44.064Z,98698.73
2024-03-21T17:18:50.770Z,98713.33
2024-03-21T17:28:57.872Z,98732.19
2024-03-21T17:39:04.792Z,98741.05
2024-03-21T17:49:11.495Z,98746.10
2024-03-21T17:59:22.871Z,98755.90
2024-03-21T18:09:33.867Z,98764.59
2024-03-21T18:19:41.728Z,98768.96
2024-03-21T18:29:48.198Z,98768.89
2024-03-21T18:39:55.116Z,98770.20
2024-03-21T18:50:01.020Z,98775.74
2024-03-21T19:00:09.577Z,98781.79
2024-03-21T19:10:15.542Z,98784.45
2024-03-21T19:20:22.025Z,98789.69
2024-03-21T19:30:27.909Z,98793.45
2024-03-21T19:40:34.803Z,98802.50
2024-03-21T19:50:41.153Z,98801.54
2024-03-21T20:00:47.129Z,98796.95
2024-03-21T20:10:58.036Z,98800.25
2024-03-21T20:21:04.550Z,98805.52
2024-03-21T20:31:11.600Z,98806.95
2024-03-21T20:41:18.309Z,98799.50
2024-03-21T20:51:25.204Z,98795.30
2024-03-21T21:01:32.446Z,98796.54
2024-03-21T21:11:39.429Z,98793.77
2024-03-21T21:21:45.104Z,98796.83
2024-03-21T21:31:52.008Z,98794.98
2024-03-21T21:52:16.325Z,98791.73
2024-03-21T22:02:22.662Z,98805.66
2024-03-21T22:12:29.022Z,98812.04
2024-03-21T22:22:35.367Z,98817.21
2024-03-21T22:32:43.291Z,98821.29
2024-03-21T22:42:49.044Z,98825.21
2024-03-21T22:52:55.424Z,98832.51
2024-03-21T23:03:03.153Z,98832.31
2024-03-21T23:13:10.028Z,98831.98
2024-03-21T23:23:16.412Z,98829.30
2024-03-21T23:33:22.782Z,98828.89
2024-03-21T23:43:29.128Z,98816.31
2024-03-21T23:53:39.337Z,98806.92
